LPB weather

El Alto International Airport
La Paz / El Alto, La Paz Department, Bolivia

Public forecast

Using degrees Celsius for public forecast. Weather courtesy of forecast.io.

Current aviation weather report (METAR) for El Alto International Airport

Retrieved 2019/10/22 10:00 UTC (27 minutes ago):

SLLP 221000Z 09004KT 4000E VCFG FEW003 SCT010 02/01 Q1037

Aviation forecast (TAF) for El Alto International Airport

Retrieved 2019/10/22 06:39 UTC (4 hours ago):

TAF TAF SLLP 220400Z 2206/2306 07005KT 3000E VCFG FEW002 SCT012 TX18/2220Z TNM02/2210Z BECMG 2214/2216 14011KT 9999 NSW FEW015 TEMPO 2218/2221 8000 VCSH FEW017 FEW020CB